<?xml version="1.0" encoding="utf-8"?>
<gpx xmlns:xsi="http://www.w3.org/2001/XMLSchema-instance" xmlns:xsd="http://www.w3.org/2001/XMLSchema" version="1.1" creator="Shapelink.com" xmlns="http://www.topografix.com/GPX/1/1" xmlns:gpxtpx="http://www.garmin.com/xmlschemas/TrackPointExtension/v1">
  <metadata>
    <name>Övrigt 2.35 km, 2019-08-08</name>
    <desc></desc>
    <author><name>Marian Moron</name></author> 
    <time>2019-08-08T20:04:07Z</time>
  </metadata>
  <trk>
    <name>Övrigt 2.35 km, 2019-08-08</name>
    <trkseg>
      <trkpt lat="51.229920169534" lon="4.458069334521">
        <ele>0</ele>
        <time>2019-08-08T20:04:07Z</time>
      </trkpt>
      <trkpt lat="51.229898460413" lon="4.458207132957">
        <ele>0.8</ele>
        <time>2019-08-08T20:04:33Z</time>
      </trkpt>
      <trkpt lat="51.229916732955" lon="4.458539223835">
        <ele>7.2</ele>
        <time>2019-08-08T20:04:52Z</time>
      </trkpt>
      <trkpt lat="51.229953278039" lon="4.458702838523">
        <ele>6.4</ele>
        <time>2019-08-08T20:05:04Z</time>
      </trkpt>
      <trkpt lat="51.229997199195" lon="4.458833512344">
        <ele>3.4</ele>
        <time>2019-08-08T20:05:16Z</time>
      </trkpt>
      <trkpt lat="51.230270532954" lon="4.45874919043">
        <ele>3.8</ele>
        <time>2019-08-08T20:05:41Z</time>
      </trkpt>
      <trkpt lat="51.230369690831" lon="4.458760003081">
        <ele>6.2</ele>
        <time>2019-08-08T20:05:51Z</time>
      </trkpt>
      <trkpt lat="51.230424592276" lon="4.45878858536">
        <ele>5.6</ele>
        <time>2019-08-08T20:05:59Z</time>
      </trkpt>
      <trkpt lat="51.230515200615" lon="4.458925964701">
        <ele>2.4</ele>
        <time>2019-08-08T20:06:10Z</time>
      </trkpt>
      <trkpt lat="51.23050304686" lon="4.45903417503">
        <ele>1.4</ele>
        <time>2019-08-08T20:06:16Z</time>
      </trkpt>
      <trkpt lat="51.230506818715" lon="4.459101733144">
        <ele>1</ele>
        <time>2019-08-08T20:06:21Z</time>
      </trkpt>
      <trkpt lat="51.230498352996" lon="4.45917834371">
        <ele>0.6</ele>
        <time>2019-08-08T20:06:32Z</time>
      </trkpt>
      <trkpt lat="51.230565492015" lon="4.459652088698">
        <ele>0</ele>
        <time>2019-08-08T20:06:59Z</time>
      </trkpt>
      <trkpt lat="51.23056172016" lon="4.459788462211">
        <ele>0</ele>
        <time>2019-08-08T20:07:24Z</time>
      </trkpt>
      <trkpt lat="51.230579489788" lon="4.460044026342">
        <ele>0.8</ele>
        <time>2019-08-08T20:07:37Z</time>
      </trkpt>
      <trkpt lat="51.230670014308" lon="4.460358263773">
        <ele>2</ele>
        <time>2019-08-08T20:08:05Z</time>
      </trkpt>
      <trkpt lat="51.230649478653" lon="4.46071642236">
        <ele>2.2</ele>
        <time>2019-08-08T20:08:25Z</time>
      </trkpt>
      <trkpt lat="51.230269527126" lon="4.460819435911">
        <ele>3.2</ele>
        <time>2019-08-08T20:09:31Z</time>
      </trkpt>
      <trkpt lat="51.230031564985" lon="4.460892945174">
        <ele>2.6</ele>
        <time>2019-08-08T20:09:50Z</time>
      </trkpt>
      <trkpt lat="51.229822688037" lon="4.460975842165">
        <ele>0</ele>
        <time>2019-08-08T20:10:04Z</time>
      </trkpt>
      <trkpt lat="51.229800727459" lon="4.461032252352">
        <ele>0.2</ele>
        <time>2019-08-08T20:10:07Z</time>
      </trkpt>
      <trkpt lat="51.229947578347" lon="4.461709342234">
        <ele>1.6</ele>
        <time>2019-08-08T20:10:41Z</time>
      </trkpt>
      <trkpt lat="51.230128292111" lon="4.46238609684">
        <ele>0</ele>
        <time>2019-08-08T20:11:10Z</time>
      </trkpt>
      <trkpt lat="51.230202891021" lon="4.462689270163">
        <ele>0</ele>
        <time>2019-08-08T20:11:40Z</time>
      </trkpt>
      <trkpt lat="51.23028847022" lon="4.463373065565">
        <ele>1.8</ele>
        <time>2019-08-08T20:12:11Z</time>
      </trkpt>
      <trkpt lat="51.230275394456" lon="4.463456297832">
        <ele>0</ele>
        <time>2019-08-08T20:12:28Z</time>
      </trkpt>
      <trkpt lat="51.230362901492" lon="4.463432074141">
        <ele>0</ele>
        <time>2019-08-08T20:13:04Z</time>
      </trkpt>
      <trkpt lat="51.230385784079" lon="4.463430565399">
        <ele>0</ele>
        <time>2019-08-08T20:13:06Z</time>
      </trkpt>
      <trkpt lat="51.230506483439" lon="4.463482784636">
        <ele>0</ele>
        <time>2019-08-08T20:13:18Z</time>
      </trkpt>
      <trkpt lat="51.230948628664" lon="4.463293688972">
        <ele>0</ele>
        <time>2019-08-08T20:13:52Z</time>
      </trkpt>
      <trkpt lat="51.231116685759" lon="4.463095708494">
        <ele>11.2</ele>
        <time>2019-08-08T20:14:27Z</time>
      </trkpt>
      <trkpt lat="51.231382643446" lon="4.463074167011">
        <ele>4.8</ele>
        <time>2019-08-08T20:14:59Z</time>
      </trkpt>
      <trkpt lat="51.231398652875" lon="4.463198470588">
        <ele>6.8</ele>
        <time>2019-08-08T20:15:19Z</time>
      </trkpt>
      <trkpt lat="51.231484399712" lon="4.463285055615">
        <ele>2.2</ele>
        <time>2019-08-08T20:15:31Z</time>
      </trkpt>
      <trkpt lat="51.231870889121" lon="4.463600466512">
        <ele>0</ele>
        <time>2019-08-08T20:16:11Z</time>
      </trkpt>
      <trkpt lat="51.231904165264" lon="4.463583199798">
        <ele>0</ele>
        <time>2019-08-08T20:16:13Z</time>
      </trkpt>
      <trkpt lat="51.231978512717" lon="4.463473899822">
        <ele>0</ele>
        <time>2019-08-08T20:16:20Z</time>
      </trkpt>
      <trkpt lat="51.232004328969" lon="4.463389242632">
        <ele>0</ele>
        <time>2019-08-08T20:16:29Z</time>
      </trkpt>
      <trkpt lat="51.232084292295" lon="4.463206601031">
        <ele>0</ele>
        <time>2019-08-08T20:16:49Z</time>
      </trkpt>
      <trkpt lat="51.232156460454" lon="4.463196375113">
        <ele>0</ele>
        <time>2019-08-08T20:17:08Z</time>
      </trkpt>
      <trkpt lat="51.232152772418" lon="4.463246247418">
        <ele>0</ele>
        <time>2019-08-08T20:17:10Z</time>
      </trkpt>
      <trkpt lat="51.232111282013" lon="4.463427631734">
        <ele>0</ele>
        <time>2019-08-08T20:17:19Z</time>
      </trkpt>
      <trkpt lat="51.231734180332" lon="4.463420088024">
        <ele>3</ele>
        <time>2019-08-08T20:17:48Z</time>
      </trkpt>
      <trkpt lat="51.23151641857" lon="4.463208277411">
        <ele>1.4</ele>
        <time>2019-08-08T20:18:02Z</time>
      </trkpt>
      <trkpt lat="51.23129178365" lon="4.462590531381">
        <ele>0</ele>
        <time>2019-08-08T20:18:31Z</time>
      </trkpt>
      <trkpt lat="51.231233613264" lon="4.462472514229">
        <ele>0</ele>
        <time>2019-08-08T20:18:39Z</time>
      </trkpt>
      <trkpt lat="51.231150716273" lon="4.461786707171">
        <ele>0</ele>
        <time>2019-08-08T20:19:08Z</time>
      </trkpt>
      <trkpt lat="51.231139819803" lon="4.461785030791">
        <ele>0</ele>
        <time>2019-08-08T20:19:12Z</time>
      </trkpt>
      <trkpt lat="51.230964638093" lon="4.46192760691">
        <ele>0</ele>
        <time>2019-08-08T20:19:27Z</time>
      </trkpt>
      <trkpt lat="51.230939911488" lon="4.461845296652">
        <ele>5</ele>
        <time>2019-08-08T20:19:35Z</time>
      </trkpt>
      <trkpt lat="51.230923147688" lon="4.461918219182">
        <ele>6.8</ele>
        <time>2019-08-08T20:19:38Z</time>
      </trkpt>
      <trkpt lat="51.230476643875" lon="4.462101866611">
        <ele>18.2</ele>
        <time>2019-08-08T20:19:54Z</time>
      </trkpt>
      <trkpt lat="51.23014513973" lon="4.462247041119">
        <ele>11.4</ele>
        <time>2019-08-08T20:20:11Z</time>
      </trkpt>
      <trkpt lat="51.230343036389" lon="4.462076469454">
        <ele>0</ele>
        <time>2019-08-08T20:20:27Z</time>
      </trkpt>
      <trkpt lat="51.230434650556" lon="4.462009498073">
        <ele>1.8</ele>
        <time>2019-08-08T20:20:39Z</time>
      </trkpt>
      <trkpt lat="51.23089280521" lon="4.461912351852">
        <ele>6</ele>
        <time>2019-08-08T20:21:09Z</time>
      </trkpt>
      <trkpt lat="51.231048457093" lon="4.461825934463">
        <ele>4</ele>
        <time>2019-08-08T20:21:34Z</time>
      </trkpt>
      <trkpt lat="51.231400245436" lon="4.461827778481">
        <ele>0</ele>
        <time>2019-08-08T20:22:15Z</time>
      </trkpt>
      <trkpt lat="51.231447267895" lon="4.462006732046">
        <ele>0</ele>
        <time>2019-08-08T20:22:41Z</time>
      </trkpt>
      <trkpt lat="51.23147702364" lon="4.462702513565">
        <ele>3.2</ele>
        <time>2019-08-08T20:23:11Z</time>
      </trkpt>
      <trkpt lat="51.231496888743" lon="4.463197380941">
        <ele>2.8</ele>
        <time>2019-08-08T20:23:32Z</time>
      </trkpt>
      <trkpt lat="51.231883713428" lon="4.463590659689">
        <ele>0</ele>
        <time>2019-08-08T20:24:03Z</time>
      </trkpt>
      <trkpt lat="51.231906596015" lon="4.463603651634">
        <ele>0</ele>
        <time>2019-08-08T20:24:05Z</time>
      </trkpt>
      <trkpt lat="51.231969376446" lon="4.463534584778">
        <ele>0</ele>
        <time>2019-08-08T20:24:11Z</time>
      </trkpt>
      <trkpt lat="51.232009022833" lon="4.463476162935">
        <ele>0</ele>
        <time>2019-08-08T20:24:15Z</time>
      </trkpt>
      <trkpt lat="51.232040706415" lon="4.463378429981">
        <ele>0</ele>
        <time>2019-08-08T20:24:24Z</time>
      </trkpt>
      <trkpt lat="51.23204028732" lon="4.463355547394">
        <ele>0</ele>
        <time>2019-08-08T20:24:28Z</time>
      </trkpt>
      <trkpt lat="51.232057721672" lon="4.463289246565">
        <ele>0</ele>
        <time>2019-08-08T20:24:32Z</time>
      </trkpt>
      <trkpt lat="51.232126117976" lon="4.463060336876">
        <ele>0</ele>
        <time>2019-08-08T20:24:55Z</time>
      </trkpt>
      <trkpt lat="51.232219492342" lon="4.462358520389">
        <ele>0</ele>
        <time>2019-08-08T20:25:26Z</time>
      </trkpt>
      <trkpt lat="51.232222258369" lon="4.462313844862">
        <ele>0</ele>
        <time>2019-08-08T20:25:29Z</time>
      </trkpt>
      <trkpt lat="51.23223223283" lon="4.462141596817">
        <ele>0</ele>
        <time>2019-08-08T20:25:37Z</time>
      </trkpt>
      <trkpt lat="51.232076161852" lon="4.461481941287">
        <ele>0</ele>
        <time>2019-08-08T20:26:10Z</time>
      </trkpt>
      <trkpt lat="51.231957977062" lon="4.461372557492">
        <ele>0</ele>
        <time>2019-08-08T20:26:39Z</time>
      </trkpt>
      <trkpt lat="51.231954708121" lon="4.461315309115">
        <ele>0</ele>
        <time>2019-08-08T20:26:42Z</time>
      </trkpt>
      <trkpt lat="51.231959150528" lon="4.460599159579">
        <ele>0</ele>
        <time>2019-08-08T20:27:17Z</time>
      </trkpt>
      <trkpt lat="51.231937944321" lon="4.460512155457">
        <ele>0</ele>
        <time>2019-08-08T20:27:24Z</time>
      </trkpt>
      <trkpt lat="51.231832164743" lon="4.459804220183">
        <ele>0</ele>
        <time>2019-08-08T20:28:00Z</time>
      </trkpt>
      <trkpt lat="51.23179302127" lon="4.459504231982">
        <ele>0</ele>
        <time>2019-08-08T20:28:14Z</time>
      </trkpt>
      <trkpt lat="51.231727223355" lon="4.459065439517">
        <ele>0</ele>
        <time>2019-08-08T20:28:39Z</time>
      </trkpt>
      <trkpt lat="51.23158431196" lon="4.458445933288">
        <ele>0</ele>
        <time>2019-08-08T20:29:19Z</time>
      </trkpt>
      <trkpt lat="51.23153318237" lon="4.458386170341">
        <ele>0</ele>
        <time>2019-08-08T20:29:24Z</time>
      </trkpt>
      <trkpt lat="51.231397730866" lon="4.458374938595">
        <ele>0.8</ele>
        <time>2019-08-08T20:29:54Z</time>
      </trkpt>
      <trkpt lat="51.231312235486" lon="4.458272930872">
        <ele>0</ele>
        <time>2019-08-08T20:30:01Z</time>
      </trkpt>
      <trkpt lat="51.231293292392" lon="4.458185675293">
        <ele>0</ele>
        <time>2019-08-08T20:30:06Z</time>
      </trkpt>
      <trkpt lat="51.231258675145" lon="4.458019462216">
        <ele>0</ele>
        <time>2019-08-08T20:30:16Z</time>
      </trkpt>
      <trkpt lat="51.231195894714" lon="4.457612856247">
        <ele>0</ele>
        <time>2019-08-08T20:30:39Z</time>
      </trkpt>
      <trkpt lat="51.231190278841" lon="4.457309012372">
        <ele>0</ele>
        <time>2019-08-08T20:30:57Z</time>
      </trkpt>
      <trkpt lat="51.231215759817" lon="4.457162580579">
        <ele>0</ele>
        <time>2019-08-08T20:31:18Z</time>
      </trkpt>
      <trkpt lat="51.23123478673" lon="4.456478952815">
        <ele>6.6</ele>
        <time>2019-08-08T20:32:00Z</time>
      </trkpt>
      <trkpt lat="51.231225147545" lon="4.456480964471">
        <ele>6.8</ele>
        <time>2019-08-08T20:32:01Z</time>
      </trkpt>
      <trkpt lat="51.231202851691" lon="4.456482389394">
        <ele>7.2</ele>
        <time>2019-08-08T20:32:03Z</time>
      </trkpt>
      <trkpt lat="51.231051726034" lon="4.456317852697">
        <ele>14.6</ele>
        <time>2019-08-08T20:32:22Z</time>
      </trkpt>
      <trkpt lat="51.231030771284" lon="4.456239565751">
        <ele>13.4</ele>
        <time>2019-08-08T20:32:28Z</time>
      </trkpt>
      <trkpt lat="51.230959608953" lon="4.456171337085">
        <ele>11.6</ele>
        <time>2019-08-08T20:32:37Z</time>
      </trkpt>
      <trkpt lat="51.230900600377" lon="4.456197823889">
        <ele>12</ele>
        <time>2019-08-08T20:32:43Z</time>
      </trkpt>
      <trkpt lat="51.230665068987" lon="4.456331263737">
        <ele>11.6</ele>
        <time>2019-08-08T20:33:04Z</time>
      </trkpt>
      <trkpt lat="51.230369523193" lon="4.456439809342">
        <ele>14.8</ele>
        <time>2019-08-08T20:33:45Z</time>
      </trkpt>
      <trkpt lat="51.229914218385" lon="4.45648356286">
        <ele>0.6</ele>
        <time>2019-08-08T20:34:23Z</time>
      </trkpt>
      <trkpt lat="51.229890497608" lon="4.45652128141">
        <ele>1.4</ele>
        <time>2019-08-08T20:34:26Z</time>
      </trkpt>
      <trkpt lat="51.229838865104" lon="4.456805511639">
        <ele>1</ele>
        <time>2019-08-08T20:35:03Z</time>
      </trkpt>
      <trkpt lat="51.229846073538" lon="4.457483188254">
        <ele>4.6</ele>
        <time>2019-08-08T20:35:38Z</time>
      </trkpt>
      <trkpt lat="51.229850851221" lon="4.457499113864">
        <ele>4.6</ele>
        <time>2019-08-08T20:35:39Z</time>
      </trkpt>
      <trkpt lat="51.229888485952" lon="4.457893314621">
        <ele>0</ele>
        <time>2019-08-08T20:36:07Z</time>
      </trkpt>
      <trkpt lat="51.229840206208" lon="4.457953077568">
        <ele>0</ele>
        <time>2019-08-08T20:36:12Z</time>
      </trkpt>
      <trkpt lat="51.229720345038" lon="4.458001692588">
        <ele>0</ele>
        <time>2019-08-08T20:36:33Z</time>
      </trkpt>
      <trkpt lat="51.229754291733" lon="4.45799062848">
        <ele>0</ele>
        <time>2019-08-08T20:36:55Z</time>
      </trkpt>
      <trkpt lat="51.229783376926" lon="4.458028095573">
        <ele>0</ele>
        <time>2019-08-08T20:37:17Z</time>
      </trkpt>
    </trkseg>
  </trk>
</gpx>